Time;durP1;ratioP1;P1;durP2;ratioP2;P2;SDS_P1;SDS_P2;PMS_P1;PMS_P2;Temp;Humidity;BMP_temperature;BMP_pressure;BME280_temperature;BME280_humidity;BME280_pressure;Samples;Min_cycle;Max_cycle;Signal;HPM_P1;HPM_P2
2022/12/04 00:00:51;;;;;;;32.45;15.75;;;3.40;99.90;;;;;;6180607;28;20042;-82
2022/12/04 00:03:55;;;;;;;32.03;16.45;;;3.40;99.90;;;;;;6182541;28;20061;-82
2022/12/04 00:06:57;;;;;;;32.88;16.27;;;3.40;99.90;;;;;;6185333;28;20055;-83
2022/12/04 00:09:59;;;;;;;31.08;15.70;;;3.40;99.90;;;;;;6184231;28;20043;-84
2022/12/04 00:13:00;;;;;;;31.13;15.90;;;3.40;99.90;;;;;;6184448;28;20054;-83
2022/12/04 00:16:05;;;;;;;31.33;16.52;;;3.40;99.90;;;;;;6184115;28;20548;-82
2022/12/04 00:19:08;;;;;;;27.38;15.82;;;3.40;99.90;;;;;;6183982;28;20087;-82
2022/12/04 00:22:09;;;;;;;25.70;13.23;;;3.50;99.90;;;;;;6184372;28;20477;-83
2022/12/04 00:25:11;;;;;;;29.00;15.52;;;3.50;99.90;;;;;;6184012;28;20047;-82
2022/12/04 00:28:13;;;;;;;31.65;18.17;;;3.50;99.90;;;;;;6185699;28;20069;-82
2022/12/04 00:31:18;;;;;;;27.65;14.07;;;3.50;99.90;;;;;;6185093;28;20074;-82
2022/12/04 00:34:21;;;;;;;27.58;14.10;;;3.50;99.90;;;;;;6185075;28;20062;-83
2022/12/04 00:37:23;;;;;;;33.65;16.33;;;3.50;99.90;;;;;;6182159;28;20050;-82
2022/12/04 00:40:25;;;;;;;23.80;12.07;;;3.50;99.90;;;;;;6182660;28;20047;-82
2022/12/04 00:43:27;;;;;;;32.10;15.80;;;3.50;99.90;;;;;;6182390;28;20055;-82
2022/12/04 00:46:29;;;;;;;29.65;16.05;;;3.50;99.90;;;;;;6185252;28;20046;-82
2022/12/04 00:49:32;;;;;;;30.38;16.42;;;3.50;99.90;;;;;;6184461;28;20130;-82
2022/12/04 00:52:34;;;;;;;34.47;16.58;;;3.50;99.90;;;;;;6184355;28;20046;-82
2022/12/04 00:55:38;;;;;;;35.88;17.95;;;3.50;99.90;;;;;;6184215;28;20073;-81
2022/12/04 00:58:40;;;;;;;37.50;20.42;;;3.50;99.90;;;;;;6183612;28;20051;-82
2022/12/04 01:01:41;;;;;;;29.00;15.68;;;3.60;99.90;;;;;;6184710;28;20181;-82
2022/12/04 01:04:44;;;;;;;34.05;15.25;;;3.50;99.90;;;;;;6185091;28;20051;-83
2022/12/04 01:07:46;;;;;;;30.80;16.77;;;3.60;99.90;;;;;;6185737;28;20042;-83
2022/12/04 01:10:48;;;;;;;30.42;15.38;;;3.50;99.90;;;;;;6210747;28;20065;-84
2022/12/04 01:13:50;;;;;;;24.95;14.25;;;3.60;99.90;;;;;;6208269;28;20050;-83
2022/12/04 01:16:52;;;;;;;32.53;14.05;;;3.60;99.90;;;;;;6185088;28;20047;-82
2022/12/04 01:19:55;;;;;;;33.42;16.23;;;3.60;99.90;;;;;;6161712;28;20061;-83
2022/12/04 01:22:57;;;;;;;32.97;16.05;;;3.60;99.90;;;;;;6162799;28;20061;-82
2022/12/04 01:25:59;;;;;;;31.65;15.82;;;3.60;99.90;;;;;;6161873;28;20047;-83
2022/12/04 01:29:00;;;;;;;36.28;16.80;;;3.50;99.90;;;;;;6177814;28;20046;-82
2022/12/04 01:32:02;;;;;;;29.08;16.63;;;3.60;99.90;;;;;;6185790;28;20057;-82
2022/12/04 01:35:06;;;;;;;34.88;19.45;;;3.60;99.90;;;;;;6186588;28;20050;-82
2022/12/04 01:38:08;;;;;;;36.38;18.33;;;3.60;99.90;;;;;;6186347;28;20410;-82
2022/12/04 01:41:12;;;;;;;30.23;16.35;;;3.60;99.90;;;;;;6186860;28;20051;-82
2022/12/04 01:44:17;;;;;;;35.53;17.95;;;3.60;99.90;;;;;;6186489;28;20405;-83
2022/12/04 01:47:18;;;;;;;32.03;16.55;;;3.60;99.90;;;;;;6185772;28;20049;-82
2022/12/04 01:50:22;;;;;;;33.63;17.35;;;3.60;99.90;;;;;;6185605;28;20057;-83
2022/12/04 01:53:24;;;;;;;33.47;16.73;;;3.60;99.90;;;;;;6187730;28;20053;-81
2022/12/04 01:56:32;;;;;;;31.20;14.43;;;3.70;99.90;;;;;;6193032;28;20057;-83
2022/12/04 01:59:38;;;;;;;37.90;17.90;;;3.70;99.90;;;;;;6180456;28;20051;-83
2022/12/04 02:02:43;;;;;;;34.97;19.10;;;3.70;99.90;;;;;;6181900;28;20054;-83
2022/12/04 02:05:46;;;;;;;34.35;17.67;;;3.70;99.90;;;;;;6180230;28;20054;-82
2022/12/04 02:08:48;;;;;;;37.97;16.88;;;3.70;99.90;;;;;;6179711;28;20057;-82
2022/12/04 02:11:57;;;;;;;34.35;17.02;;;3.70;99.90;;;;;;6180945;28;20512;-83
2022/12/04 02:15:10;;;;;;;35.30;18.15;;;3.70;99.90;;;;;;6181125;28;20058;-83
2022/12/04 02:18:19;;;;;;;33.55;18.88;;;3.60;99.90;;;;;;6156779;28;20053;-82
2022/12/04 02:21:30;;;;;;;28.48;16.98;;;3.60;99.90;;;;;;6157822;28;20564;-83
2022/12/04 02:24:43;;;;;;;34.25;16.33;;;3.60;99.90;;;;;;6155911;28;20069;-82
2022/12/04 02:28:03;;;;;;;33.90;17.50;;;3.60;99.90;;;;;;6156558;28;20063;-82
2022/12/04 02:31:09;;;;;;;33.53;17.98;;;3.60;99.90;;;;;;6159207;28;20114;-82
2022/12/04 02:34:16;;;;;;;24.98;15.65;;;3.60;99.90;;;;;;6158314;28;20065;-82
2022/12/04 02:37:24;;;;;;;25.50;14.35;;;3.60;99.90;;;;;;6157195;28;20448;-82
2022/12/04 02:40:30;;;;;;;37.47;18.92;;;3.60;99.90;;;;;;6157408;28;20062;-83
2022/12/04 02:43:39;;;;;;;29.40;17.05;;;3.60;99.90;;;;;;6157848;28;20050;-82
2022/12/04 02:46:44;;;;;;;28.20;15.82;;;3.60;99.90;;;;;;6158438;28;20050;-81
2022/12/04 02:49:56;;;;;;;35.72;16.17;;;3.60;99.90;;;;;;6157846;28;20055;-82
2022/12/04 02:53:03;;;;;;;26.40;15.95;;;3.60;99.90;;;;;;6157384;28;20043;-82
2022/12/04 02:56:09;;;;;;;30.70;15.60;;;3.60;99.90;;;;;;6157850;28;20048;-82
2022/12/04 02:59:17;;;;;;;33.50;17.40;;;3.60;99.90;;;;;;6157355;28;20065;-82
2022/12/04 03:02:24;;;;;;;43.92;17.58;;;3.60;99.90;;;;;;6158676;28;20051;-83
2022/12/04 03:05:33;;;;;;;28.30;15.65;;;3.60;99.90;;;;;;6165353;28;20070;-82
2022/12/04 03:08:42;;;;;;;34.40;16.38;;;3.60;99.90;;;;;;6181226;28;20054;-82
2022/12/04 03:11:49;;;;;;;31.85;14.93;;;3.60;99.90;;;;;;6182864;28;20046;-81
2022/12/04 03:14:57;;;;;;;29.43;14.57;;;3.60;99.90;;;;;;6183115;28;20065;-82
2022/12/04 03:18:00;;;;;;;;;;;3.60;99.90;;;;;;6182176;28;20420;-82
2022/12/04 03:21:06;;;;;;;28.48;14.63;;;3.60;99.90;;;;;;6182000;28;19922;-83
2022/12/04 03:24:14;;;;;;;28.88;14.65;;;3.60;99.90;;;;;;6182508;28;20065;-81
2022/12/04 03:27:23;;;;;;;26.45;12.27;;;3.60;99.90;;;;;;6181382;28;20073;-80
2022/12/04 03:30:33;;;;;;;25.20;12.30;;;3.60;99.90;;;;;;6181777;28;20061;-83
2022/12/04 03:33:40;;;;;;;30.48;14.82;;;3.60;99.90;;;;;;6172243;28;20048;-83
2022/12/04 03:36:52;;;;;;;23.48;14.65;;;3.60;99.90;;;;;;6157623;28;20047;-82
2022/12/04 03:40:00;;;;;;;25.52;13.52;;;3.60;99.90;;;;;;6156287;28;20059;-82
2022/12/04 03:43:06;;;;;;;23.33;14.88;;;3.60;99.90;;;;;;6157368;29;20055;-81
2022/12/04 03:46:14;;;;;;;29.05;13.75;;;3.60;99.90;;;;;;6156571;28;20516;-82
2022/12/04 03:49:22;;;;;;;24.00;12.73;;;3.60;99.90;;;;;;6156501;28;20043;-82
2022/12/04 03:52:27;;;;;;;;;;;3.60;99.90;;;;;;6157747;28;20041;-82
2022/12/04 03:55:34;;;;;;;29.42;14.00;;;3.60;99.90;;;;;;6156239;28;20391;-82
2022/12/04 03:58:41;;;;;;;25.85;15.32;;;3.60;99.90;;;;;;6156147;29;20047;-82
2022/12/04 04:01:49;;;;;;;25.00;13.10;;;3.60;99.90;;;;;;6157263;28;20414;-82
2022/12/04 04:04:55;;;;;;;23.77;13.27;;;3.50;99.90;;;;;;6156991;28;20541;-83
2022/12/04 04:08:24;;;;;;;29.83;15.13;;;3.60;99.90;;;;;;6157102;28;20047;-83
2022/12/04 04:11:27;;;;;;;22.23;12.38;;;3.60;99.90;;;;;;6156986;28;20059;-82
2022/12/04 04:24:42;;;;;;;21.63;13.77;;;3.60;99.90;;;;;;6157875;28;20051;-82
2022/12/04 04:27:51;;;;;;;24.70;13.20;;;3.60;99.90;;;;;;6157158;28;20051;-82
2022/12/04 04:30:56;;;;;;;25.30;15.23;;;3.60;99.90;;;;;;6158156;29;20047;-82
2022/12/04 04:34:04;;;;;;;22.10;12.15;;;3.60;99.90;;;;;;6158207;28;20076;-82
2022/12/04 04:37:13;;;;;;;27.80;14.65;;;3.60;99.90;;;;;;6158435;28;20555;-82
2022/12/04 04:40:21;;;;;;;24.27;13.88;;;3.60;99.90;;;;;;6158468;28;20050;-82
2022/12/04 04:43:28;;;;;;;24.20;13.20;;;3.60;99.90;;;;;;6159747;28;20055;-82
2022/12/04 04:46:34;;;;;;;23.83;15.10;;;3.60;99.90;;;;;;6161171;28;20055;-82
2022/12/04 04:49:41;;;;;;;24.63;12.52;;;3.60;99.90;;;;;;6163182;28;20065;-82
2022/12/04 04:52:46;;;;;;;20.58;12.13;;;3.60;99.90;;;;;;6165442;28;20070;-82
2022/12/04 04:55:48;;;;;;;24.05;14.25;;;3.60;99.90;;;;;;6173965;28;20055;-82
2022/12/04 04:58:50;;;;;;;20.63;12.48;;;3.60;99.90;;;;;;6159328;28;20043;-82
2022/12/04 05:01:52;;;;;;;25.95;13.68;;;3.60;99.90;;;;;;6158450;28;20055;-81
2022/12/04 05:04:55;;;;;;;26.10;13.48;;;3.60;99.90;;;;;;6157834;28;20057;-82
2022/12/04 05:07:57;;;;;;;22.63;11.88;;;3.60;99.90;;;;;;6162533;28;20059;-82
2022/12/04 05:10:59;;;;;;;22.70;11.52;;;3.60;99.90;;;;;;6182614;28;20064;-82
2022/12/04 05:14:00;;;;;;;20.73;11.45;;;3.70;99.90;;;;;;6182443;28;20053;-81
2022/12/04 05:17:04;;;;;;;22.63;12.52;;;3.70;99.90;;;;;;6183232;28;20047;-82
2022/12/04 05:20:09;;;;;;;21.33;11.13;;;3.70;99.90;;;;;;6183564;28;20057;-82
2022/12/04 05:23:11;;;;;;;24.15;14.18;;;3.70;99.90;;;;;;6182408;28;20129;-81
2022/12/04 05:26:13;;;;;;;17.95;11.45;;;3.70;99.90;;;;;;6183460;28;20057;-83
2022/12/04 05:29:15;;;;;;;24.42;13.07;;;3.70;99.90;;;;;;6169187;28;20057;-81
2022/12/04 05:32:16;;;;;;;22.38;13.55;;;3.70;99.90;;;;;;6159291;28;20047;-82
2022/12/04 05:35:20;;;;;;;31.63;13.75;;;3.70;99.90;;;;;;6159443;28;20061;-82
2022/12/04 05:38:21;;;;;;;21.20;12.60;;;3.70;99.90;;;;;;6158617;28;20055;-81
2022/12/04 05:41:24;;;;;;;18.73;10.45;;;3.80;99.90;;;;;;6160021;28;20452;-82
2022/12/04 05:44:25;;;;;;;21.08;13.50;;;3.80;99.90;;;;;;6159962;28;20051;-81
2022/12/04 05:47:27;;;;;;;24.50;12.88;;;3.80;99.90;;;;;;6159598;28;20061;-82
2022/12/04 05:50:30;;;;;;;22.35;13.43;;;3.80;99.90;;;;;;6160336;29;20055;-82
2022/12/04 05:53:32;;;;;;;23.23;12.20;;;3.80;99.90;;;;;;6159031;28;20167;-81
2022/12/04 05:56:33;;;;;;;24.60;12.00;;;3.80;99.90;;;;;;6237801;22;20297;-85
2022/12/04 05:59:36;;;;;;;26.40;14.02;;;3.80;99.90;;;;;;6233816;28;20050;-83
2022/12/04 06:02:38;;;;;;;25.58;12.75;;;3.80;99.90;;;;;;6235604;28;20068;-83
2022/12/04 06:05:41;;;;;;;21.42;12.38;;;3.80;99.90;;;;;;6235241;28;20046;-83
2022/12/04 06:08:42;;;;;;;23.95;13.80;;;3.80;99.90;;;;;;6233956;28;20058;-83
2022/12/04 06:11:44;;;;;;;20.02;12.15;;;3.80;99.90;;;;;;6234265;28;20415;-83
2022/12/04 06:14:46;;;;;;;21.45;12.10;;;3.80;99.90;;;;;;6234731;28;20068;-84
2022/12/04 06:17:48;;;;;;;18.75;12.55;;;3.80;99.90;;;;;;6233780;28;20042;-84
2022/12/04 06:20:51;;;;;;;19.38;12.88;;;3.80;99.90;;;;;;6235005;28;20140;-84
2022/12/04 06:23:53;;;;;;;21.85;13.20;;;3.80;99.90;;;;;;6234676;28;20133;-83
2022/12/04 06:26:57;;;;;;;25.83;13.45;;;3.80;99.90;;;;;;6234196;28;20137;-84
2022/12/04 06:29:58;;;;;;;22.83;14.18;;;3.90;99.90;;;;;;6231873;28;20423;-84
2022/12/04 06:33:00;;;;;;;21.38;13.20;;;3.80;99.90;;;;;;6231589;28;20046;-84
2022/12/04 06:36:05;;;;;;;21.00;12.35;;;3.80;99.90;;;;;;6232266;28;20054;-83
2022/12/04 06:39:07;;;;;;;22.35;12.00;;;3.90;99.90;;;;;;6232767;28;20041;-83
2022/12/04 06:42:09;;;;;;;23.80;12.45;;;3.90;99.90;;;;;;6233128;28;20046;-84
2022/12/04 06:45:11;;;;;;;20.95;10.98;;;3.90;99.90;;;;;;6233399;28;20056;-82
2022/12/04 06:48:13;;;;;;;22.60;10.95;;;3.90;99.90;;;;;;6232272;28;20045;-82
2022/12/04 06:51:18;;;;;;;20.35;11.88;;;3.90;99.90;;;;;;6231377;28;20046;-83
2022/12/04 06:54:19;;;;;;;28.02;12.95;;;3.90;99.90;;;;;;6232815;28;20140;-83
2022/12/04 06:57:21;;;;;;;18.50;11.60;;;3.90;99.90;;;;;;6232428;28;20052;-83
2022/12/04 07:00:23;;;;;;;20.92;11.98;;;3.90;99.90;;;;;;6240671;28;20051;-83
2022/12/04 07:03:26;;;;;;;30.27;14.52;;;3.90;99.90;;;;;;6257777;28;20114;-82
2022/12/04 07:06:31;;;;;;;17.00;11.25;;;3.90;99.90;;;;;;6257678;28;20463;-84
2022/12/04 07:09:33;;;;;;;24.15;15.40;;;3.90;99.90;;;;;;6256713;28;20552;-83
2022/12/04 07:12:35;;;;;;;26.13;14.98;;;3.90;99.90;;;;;;6256270;28;20051;-84
2022/12/04 07:15:38;;;;;;;22.92;12.40;;;3.90;99.90;;;;;;6257263;28;20101;-84
2022/12/04 07:18:41;;;;;;;22.80;13.00;;;3.90;99.90;;;;;;6256562;28;20042;-83
2022/12/04 07:21:44;;;;;;;23.25;12.20;;;3.90;99.90;;;;;;6256744;28;20100;-83
2022/12/04 07:24:45;;;;;;;28.90;13.07;;;3.90;99.90;;;;;;6257615;28;20117;-83
2022/12/04 07:27:47;;;;;;;28.98;15.65;;;4.00;99.90;;;;;;6257441;28;20045;-84
2022/12/04 07:30:49;;;;;;;23.27;12.27;;;3.90;99.90;;;;;;6257622;28;20053;-84
2022/12/04 07:33:52;;;;;;;24.00;12.85;;;4.00;99.90;;;;;;6252043;28;20109;-84
2022/12/04 07:36:55;;;;;;;21.90;13.05;;;4.00;99.90;;;;;;6232666;28;20496;-84
2022/12/04 07:39:57;;;;;;;23.48;12.63;;;4.00;99.90;;;;;;6232167;28;20523;-83
2022/12/04 07:42:59;;;;;;;22.75;12.38;;;4.00;99.90;;;;;;6231263;28;20056;-85
2022/12/04 07:46:06;;;;;;;20.05;11.38;;;4.00;99.90;;;;;;6232697;28;20069;-84
2022/12/04 07:49:11;;;;;;;20.98;12.75;;;4.00;99.90;;;;;;6229639;28;20072;-82
2022/12/04 07:52:14;;;;;;;24.80;13.98;;;4.00;99.90;;;;;;6230845;28;20049;-82
2022/12/04 07:55:16;;;;;;;20.05;11.93;;;4.00;99.90;;;;;;6230622;28;20056;-83
2022/12/04 07:58:18;;;;;;;26.05;16.35;;;4.00;99.90;;;;;;6231943;28;20053;-83
2022/12/04 08:01:22;;;;;;;24.33;14.63;;;4.00;99.90;;;;;;6231327;28;20042;-83
2022/12/04 08:04:24;;;;;;;20.55;13.43;;;4.10;99.90;;;;;;6229696;28;20050;-82
2022/12/04 08:07:27;;;;;;;25.02;13.30;;;4.00;99.90;;;;;;6251459;28;20709;-82
2022/12/04 08:10:28;;;;;;;23.67;12.35;;;4.00;99.90;;;;;;6254198;28;20053;-83
2022/12/04 08:13:30;;;;;;;25.38;14.48;;;4.10;99.90;;;;;;6254014;28;20067;-83
2022/12/04 08:16:33;;;;;;;23.42;16.02;;;4.10;99.90;;;;;;6254010;28;20050;-82
2022/12/04 08:19:34;;;;;;;228.57;143.18;;;4.10;99.90;;;;;;6253071;28;20046;-84
2022/12/04 08:22:37;;;;;;;35.70;22.77;;;4.10;99.90;;;;;;6252549;28;20053;-83
2022/12/04 08:25:39;;;;;;;25.70;14.57;;;4.10;99.90;;;;;;6231087;28;20513;-83
2022/12/04 08:28:42;;;;;;;23.60;14.02;;;4.20;99.90;;;;;;6256456;28;20064;-83
2022/12/04 08:31:44;;;;;;;28.00;14.80;;;4.20;99.90;;;;;;6255498;28;20498;-83
2022/12/04 08:34:45;;;;;;;25.52;15.32;;;4.30;99.90;;;;;;6257960;28;20083;-83
2022/12/04 08:37:48;;;;;;;39.13;29.60;;;4.30;99.90;;;;;;6256614;28;20045;-82
2022/12/04 08:40:50;;;;;;;23.23;13.25;;;4.30;99.90;;;;;;6259286;28;20491;-84
2022/12/04 08:43:53;;;;;;;26.90;15.00;;;4.30;99.90;;;;;;6276328;28;20223;-84
2022/12/04 08:46:55;;;;;;;22.73;14.85;;;4.30;99.90;;;;;;6277263;28;20095;-82
2022/12/04 08:49:57;;;;;;;26.45;14.60;;;4.30;99.90;;;;;;6275743;28;20091;-82
2022/12/04 08:53:00;;;;;;;25.60;13.43;;;4.30;99.90;;;;;;6266088;28;20491;-83
2022/12/04 08:56:02;;;;;;;27.38;15.40;;;4.30;99.90;;;;;;6261696;28;20059;-83
2022/12/04 08:59:05;;;;;;;21.77;12.10;;;4.40;99.90;;;;;;6262692;28;20105;-84
2022/12/04 09:02:06;;;;;;;26.88;13.07;;;4.40;99.90;;;;;;6261327;28;20132;-83
2022/12/04 09:05:08;;;;;;;23.83;13.07;;;4.40;99.90;;;;;;6262156;28;20052;-82
2022/12/04 09:08:12;;;;;;;24.65;14.57;;;4.40;99.90;;;;;;6263284;28;20041;-83
2022/12/04 09:11:17;;;;;;;24.45;13.73;;;4.40;99.90;;;;;;6262232;28;20053;-83
2022/12/04 09:14:24;;;;;;;26.75;15.13;;;4.40;99.90;;;;;;6262626;28;20113;-83
2022/12/04 09:17:26;;;;;;;20.35;12.82;;;4.40;99.90;;;;;;6262193;28;20092;-83
2022/12/04 09:20:28;;;;;;;23.17;14.55;;;4.40;99.90;;;;;;6263350;28;20045;-83
2022/12/04 09:23:31;;;;;;;23.35;11.93;;;4.40;99.90;;;;;;6263514;28;20109;-83
2022/12/04 09:26:33;;;;;;;27.98;14.75;;;4.40;99.90;;;;;;6263403;28;20132;-83
2022/12/04 09:29:34;;;;;;;24.83;13.50;;;4.50;99.90;;;;;;6236417;28;20494;-82
2022/12/04 09:32:37;;;;;;;19.27;12.65;;;4.50;99.90;;;;;;6238165;28;20129;-84
2022/12/04 09:35:39;;;;;;;23.40;14.35;;;4.50;99.90;;;;;;6236976;28;20058;-83
2022/12/04 09:38:43;;;;;;;32.00;15.13;;;4.60;99.90;;;;;;6238595;28;20168;-84
2022/12/04 09:42:04;;;;;;;24.63;11.85;;;4.60;99.90;;;;;;6238181;28;20052;-84
2022/12/04 09:45:14;;;;;;;22.13;13.38;;;4.60;99.90;;;;;;6236668;28;20056;-84
2022/12/04 09:48:25;;;;;;;22.13;12.40;;;4.60;99.90;;;;;;6236118;28;20065;-84
2022/12/04 09:59:28;;;;;;;23.30;13.20;;;4.60;99.90;;;;;;6223849;28;20077;-83
2022/12/04 10:13:48;;;;;;;25.45;15.00;;;4.60;99.90;;;;;;6240981;28;20041;-83
2022/12/04 10:17:22;;;;;;;22.77;13.10;;;4.60;99.90;;;;;;6256255;28;20064;-86
2022/12/04 10:21:15;;;;;;;26.98;14.40;;;4.60;99.90;;;;;;6253981;28;20045;-85
2022/12/04 10:28:06;;;;;;;29.63;16.25;;;4.60;99.90;;;;;;6201681;28;20060;-84
2022/12/04 10:31:13;;;;;;;25.92;16.65;;;4.80;99.90;;;;;;6259201;28;20129;-85
2022/12/04 10:34:25;;;;;;;25.80;14.63;;;4.60;99.90;;;;;;6256300;28;20136;-84
2022/12/04 10:37:28;;;;;;;29.70;15.88;;;4.60;99.90;;;;;;6258314;28;20049;-85
2022/12/04 10:40:36;;;;;;;32.10;18.67;;;4.60;99.90;;;;;;6258498;28;20096;-85
2022/12/04 10:43:41;;;;;;;;;;;4.60;99.90;;;;;;6258206;28;20160;-84
2022/12/04 10:46:44;;;;;;;30.33;13.73;;;4.70;99.90;;;;;;6257311;28;19921;-84
2022/12/04 10:50:02;;;;;;;26.40;13.68;;;4.70;99.90;;;;;;6254784;28;20052;-84
2022/12/04 10:53:21;;;;;;;;;;;4.70;99.90;;;;;;6235613;28;20533;-83
2022/12/04 10:56:25;;;;;;;31.30;15.38;;;4.70;99.90;;;;;;6250464;28;19971;-84
2022/12/04 10:59:32;;;;;;;28.27;14.95;;;4.70;99.90;;;;;;6251879;28;20051;-86
2022/12/04 11:02:38;;;;;;;30.27;15.25;;;4.80;99.90;;;;;;6232683;28;20062;-84
2022/12/04 11:06:14;;;;;;;29.13;16.00;;;4.70;99.90;;;;;;6229415;28;20050;-84
2022/12/04 11:09:32;;;;;;;30.30;15.85;;;4.70;99.90;;;;;;6250114;28;20068;-85
2022/12/04 11:12:43;;;;;;;32.10;15.93;;;4.80;99.90;;;;;;6262524;28;20048;-85
2022/12/04 11:58:59;;;;;;;26.10;14.07;;;4.80;99.90;;;;;;6049339;22;20081;-81
2022/12/04 12:02:18;;;;;;;24.70;14.75;;;4.80;99.90;;;;;;6278818;28;20127;-83
2022/12/04 12:05:44;;;;;;;29.83;15.95;;;4.90;99.90;;;;;;6276961;28;20045;-81
2022/12/04 12:09:06;;;;;;;29.33;16.55;;;4.90;99.90;;;;;;6276130;28;20136;-82
2022/12/04 12:15:42;;;;;;;27.92;15.60;;;4.90;99.90;;;;;;6253621;28;20065;-81
2022/12/04 12:19:00;;;;;;;29.60;15.95;;;4.80;99.90;;;;;;6255819;28;20386;-81
2022/12/04 12:22:11;;;;;;;27.52;15.85;;;4.80;99.90;;;;;;6254278;28;20046;-81
2022/12/04 12:25:19;;;;;;;37.58;16.25;;;4.80;99.90;;;;;;6279335;28;20532;-82
2022/12/04 12:28:38;;;;;;;37.90;14.88;;;4.80;99.90;;;;;;6279355;28;20049;-81
2022/12/04 12:32:02;;;;;;;28.88;17.27;;;4.80;99.90;;;;;;6279661;28;20048;-81
2022/12/04 12:35:14;;;;;;;26.60;15.82;;;4.80;99.90;;;;;;6281017;28;20111;-81
2022/12/04 12:38:19;;;;;;;25.10;16.60;;;4.80;99.90;;;;;;6280134;28;20059;-81
2022/12/04 12:41:31;;;;;;;26.55;13.95;;;4.80;99.90;;;;;;6280526;28;20053;-81
2022/12/04 12:44:41;;;;;;;27.23;17.13;;;4.80;99.90;;;;;;6279741;28;20075;-79
2022/12/04 12:47:49;;;;;;;30.95;16.70;;;4.80;99.90;;;;;;6275994;28;20049;-79
2022/12/04 12:50:55;;;;;;;30.83;15.98;;;4.80;99.90;;;;;;6276915;28;20049;-79
2022/12/04 12:54:01;;;;;;;29.80;14.43;;;4.80;99.90;;;;;;6276528;28;20045;-80
2022/12/04 12:57:07;;;;;;;29.55;17.50;;;4.80;99.90;;;;;;6271822;28;20046;-80
2022/12/04 13:00:16;;;;;;;29.83;16.58;;;4.80;99.90;;;;;;6273806;28;20052;-82
2022/12/04 13:03:27;;;;;;;29.30;15.27;;;4.70;99.90;;;;;;6278757;28;20053;-79
2022/12/04 13:06:35;;;;;;;31.02;17.38;;;4.70;99.90;;;;;;6280543;28;20049;-78
2022/12/04 13:09:39;;;;;;;26.55;15.68;;;4.70;99.90;;;;;;6276749;28;20045;-79
2022/12/04 13:12:45;;;;;;;35.95;16.55;;;4.70;99.90;;;;;;6278102;28;20055;-79
2022/12/04 13:15:51;;;;;;;42.13;24.02;;;4.70;99.90;;;;;;6279004;28;20059;-79
2022/12/04 13:19:04;;;;;;;46.97;41.80;;;4.70;99.90;;;;;;6278350;28;20045;-78
2022/12/04 13:22:16;;;;;;;33.70;18.70;;;4.80;99.90;;;;;;6282164;28;20425;-79
2022/12/04 13:25:36;;;;;;;32.60;21.77;;;4.80;99.90;;;;;;6267842;28;20045;-79
2022/12/04 13:28:50;;;;;;;33.30;19.23;;;4.70;99.90;;;;;;6274403;28;20056;-79
2022/12/04 13:32:03;;;;;;;30.15;17.67;;;4.80;99.90;;;;;;6275853;28;20060;-80
2022/12/04 13:35:18;;;;;;;30.83;19.48;;;4.70;99.90;;;;;;6277652;28;20051;-79
2022/12/04 13:38:28;;;;;;;34.63;17.77;;;4.80;99.90;;;;;;6274269;28;20045;-80
2022/12/04 13:41:38;;;;;;;45.38;25.58;;;4.80;99.90;;;;;;6275616;28;20052;-79
2022/12/04 13:44:40;;;;;;;32.67;17.88;;;4.80;99.90;;;;;;6274749;28;20045;-78
2022/12/04 13:47:42;;;;;;;39.13;20.67;;;4.90;99.90;;;;;;6273161;28;20053;-79
2022/12/04 13:50:45;;;;;;;33.30;18.25;;;4.90;99.90;;;;;;6274832;28;20049;-78
2022/12/04 13:53:47;;;;;;;30.00;15.68;;;4.90;99.90;;;;;;6273471;28;20391;-78
2022/12/04 13:56:51;;;;;;;37.17;19.00;;;4.90;99.90;;;;;;6283028;28;20124;-80
2022/12/04 14:00:04;;;;;;;30.90;14.70;;;4.80;99.90;;;;;;6276156;28;20530;-80
2022/12/04 14:03:20;;;;;;;33.67;16.23;;;4.80;99.90;;;;;;6284802;28;20053;-81
2022/12/04 14:06:28;;;;;;;27.98;14.35;;;4.80;99.90;;;;;;6286754;28;20468;-81
2022/12/04 14:09:33;;;;;;;;;;;4.80;99.90;;;;;;6277924;28;20482;-79
2022/12/04 14:12:38;;;;;;;34.40;15.45;;;4.80;99.90;;;;;;6261366;28;19921;-79
2022/12/04 14:15:40;;;;;;;38.17;15.68;;;4.80;99.90;;;;;;6275601;28;20044;-79
2022/12/04 14:18:47;;;;;;;36.00;17.48;;;4.80;99.90;;;;;;6278169;28;20045;-80
2022/12/04 14:21:50;;;;;;;32.92;16.45;;;4.80;99.90;;;;;;6277917;28;20051;-80
2022/12/04 14:24:52;;;;;;;29.60;16.63;;;4.70;99.90;;;;;;6277827;28;20041;-82
2022/12/04 14:27:54;;;;;;;36.50;17.20;;;4.70;99.90;;;;;;6277404;28;20056;-79
2022/12/04 14:31:12;;;;;;;32.28;19.05;;;4.70;99.90;;;;;;6279196;28;20132;-81
2022/12/04 14:34:22;;;;;;;31.63;18.23;;;4.70;99.90;;;;;;6279778;28;20055;-80
2022/12/04 14:37:29;;;;;;;34.92;18.25;;;4.70;99.90;;;;;;6278027;28;20053;-80
2022/12/04 14:40:37;;;;;;;25.83;15.00;;;4.70;99.90;;;;;;6279447;28;20055;-80
2022/12/04 14:43:44;;;;;;;38.72;19.13;;;4.60;99.90;;;;;;6280135;28;20051;-81
2022/12/04 14:46:49;;;;;;;31.33;17.07;;;4.60;99.90;;;;;;6280403;28;20090;-81
2022/12/04 14:50:04;;;;;;;30.67;18.45;;;4.70;99.90;;;;;;6275578;28;20048;-79
2022/12/04 14:53:17;;;;;;;45.25;19.75;;;4.70;99.90;;;;;;6275583;28;20045;-80
2022/12/04 14:56:32;;;;;;;30.15;19.65;;;4.70;99.90;;;;;;6276602;28;20071;-85
2022/12/04 14:59:40;;;;;;;40.58;21.02;;;4.70;99.90;;;;;;6271906;28;20053;-80
2022/12/04 15:02:45;;;;;;;40.03;20.58;;;4.70;99.90;;;;;;6279408;28;20053;-81
2022/12/04 15:05:49;;;;;;;36.30;20.23;;;4.70;99.90;;;;;;6277464;28;20053;-84
2022/12/04 15:12:32;;;;;;;35.03;21.60;;;4.70;99.90;;;;;;6274231;28;20067;-81
2022/12/04 15:12:32;;;;;;;32.38;20.95;;;4.60;99.90;;;;;;6264967;28;20076;-81
2022/12/04 15:15:35;;;;;;;40.38;22.05;;;4.70;99.90;;;;;;6279181;28;20041;-82
2022/12/04 15:18:37;;;;;;;34.03;21.80;;;4.60;99.90;;;;;;6276552;28;20057;-81
2022/12/04 15:21:43;;;;;;;46.60;24.88;;;4.60;99.90;;;;;;6275215;28;20595;-81
2022/12/04 15:24:46;;;;;;;44.70;23.33;;;4.60;99.90;;;;;;6267677;28;20045;-80
2022/12/04 15:27:51;;;;;;;43.38;23.25;;;4.60;99.90;;;;;;6275740;28;20064;-81
2022/12/04 15:30:55;;;;;;;51.63;26.98;;;4.50;99.90;;;;;;6277308;28;20045;-81
2022/12/04 15:34:02;;;;;;;47.10;24.45;;;4.50;99.90;;;;;;6278961;28;20055;-82
2022/12/04 15:37:06;;;;;;;52.03;27.90;;;4.40;99.90;;;;;;6275444;28;20140;-81
2022/12/04 15:40:20;;;;;;;47.92;25.58;;;4.40;99.90;;;;;;6276296;28;20243;-84
2022/12/04 15:43:31;;;;;;;53.65;25.10;;;4.40;99.90;;;;;;6275913;28;20060;-80
2022/12/04 15:46:36;;;;;;;43.50;24.95;;;4.30;99.90;;;;;;6274935;28;20764;-80
2022/12/04 15:49:38;;;;;;;43.55;25.42;;;4.30;99.90;;;;;;6274568;28;20048;-80
2022/12/04 15:52:49;;;;;;;71.40;37.80;;;4.30;99.90;;;;;;6279532;28;20044;-80
2022/12/04 15:55:56;;;;;;;60.25;27.83;;;4.30;99.90;;;;;;6280242;28;20041;-79
2022/12/04 15:59:01;;;;;;;92.85;77.57;;;4.20;99.90;;;;;;6278858;28;20049;-80
2022/12/04 16:02:08;;;;;;;56.78;36.33;;;4.20;99.90;;;;;;6279621;28;20539;-80
2022/12/04 16:05:13;;;;;;;52.03;29.70;;;4.10;99.90;;;;;;6281270;28;20045;-80
2022/12/04 16:08:31;;;;;;;44.25;26.35;;;4.00;99.90;;;;;;6278405;28;20126;-80
2022/12/04 16:11:37;;;;;;;37.30;25.60;;;4.00;99.90;;;;;;6279101;28;20041;-82
2022/12/04 16:14:38;;;;;;;44.35;25.80;;;4.00;99.90;;;;;;6275811;28;20059;-79
2022/12/04 16:17:41;;;;;;;49.80;27.02;;;4.00;99.90;;;;;;6276507;28;20056;-81
2022/12/04 16:20:42;;;;;;;52.08;25.95;;;3.90;99.90;;;;;;6280051;28;20059;-82
2022/12/04 16:23:45;;;;;;;50.38;25.90;;;4.00;99.90;;;;;;6276481;28;20438;-79
2022/12/04 16:26:49;;;;;;;55.97;30.02;;;4.00;99.90;;;;;;6279293;28;20057;-80
2022/12/04 16:29:52;;;;;;;59.15;36.33;;;4.00;99.90;;;;;;6273866;28;20041;-81
2022/12/04 16:32:54;;;;;;;56.22;31.77;;;4.00;99.90;;;;;;6280516;28;20051;-81
2022/12/04 16:35:55;;;;;;;63.35;32.72;;;4.10;99.90;;;;;;6278993;28;20064;-81
2022/12/04 16:38:57;;;;;;;67.28;33.53;;;4.10;99.90;;;;;;6281440;28;20045;-81
2022/12/04 16:42:14;;;;;;;61.53;30.58;;;4.10;99.90;;;;;;6282073;28;20048;-81
2022/12/04 16:45:22;;;;;;;63.88;28.50;;;4.10;99.90;;;;;;6286003;28;20052;-81
2022/12/04 16:48:24;;;;;;;50.70;27.77;;;4.10;99.90;;;;;;6284831;28;20048;-81
2022/12/04 16:51:27;;;;;;;57.47;27.15;;;4.10;99.90;;;;;;6285295;28;20048;-81
2022/12/04 16:54:29;;;;;;;53.60;29.60;;;4.10;99.90;;;;;;6285198;28;20092;-81
2022/12/04 16:57:32;;;;;;;54.78;29.13;;;4.10;99.90;;;;;;6286528;28;20410;-81
2022/12/04 17:00:35;;;;;;;57.58;28.92;;;4.10;99.90;;;;;;6292276;28;20124;-81
2022/12/04 17:03:36;;;;;;;63.53;30.60;;;4.10;99.90;;;;;;6284819;28;20040;-81
2022/12/04 17:06:38;;;;;;;56.95;30.17;;;4.10;99.90;;;;;;6284066;28;20049;-81
2022/12/04 17:09:40;;;;;;;54.00;30.00;;;4.20;99.90;;;;;;6282955;28;20064;-81
2022/12/04 17:12:43;;;;;;;89.28;41.88;;;4.20;99.90;;;;;;6283338;28;20053;-81
2022/12/04 17:15:46;;;;;;;58.00;28.88;;;4.20;99.90;;;;;;6282828;28;20055;-81